createdAt,value
2023-01-13T00:04:44.068Z,77.41
2023-01-13T00:09:46.185Z,77.90
2023-01-13T00:14:49.484Z,77.13
2023-01-13T00:19:51.656Z,76.39
2023-01-13T00:24:53.698Z,77.53
2023-01-13T00:29:57.088Z,76.29
2023-01-13T00:34:59.115Z,76.73
2023-01-13T00:40:01.149Z,75.99
2023-01-13T00:45:05.646Z,76.74
2023-01-13T00:50:08.945Z,76.17
2023-01-13T00:55:11.021Z,77.90
2023-01-13T01:00:14.982Z,76.50
2023-01-13T01:05:17.259Z,75.29
2023-01-13T01:10:19.503Z,74.37
2023-01-13T01:15:22.993Z,75.10
2023-01-13T01:20:25.022Z,76.44
2023-01-13T01:25:27.025Z,75.48
2023-01-13T01:30:30.666Z,75.60
2023-01-13T01:35:32.660Z,75.28
2023-01-13T01:40:35.130Z,76.25
2023-01-13T01:45:38.482Z,75.76
2023-01-13T01:50:40.737Z,76.04
2023-01-13T01:55:42.898Z,75.36
2023-01-13T02:00:46.247Z,75.57
2023-01-13T02:05:48.380Z,75.18
2023-01-13T02:10:53.797Z,74.91
2023-01-13T02:16:02.540Z,76.42
2023-01-13T02:21:24.017Z,75.62
2023-01-13T02:27:02.659Z,75.23
2023-01-13T02:32:17.786Z,76.09
2023-01-13T02:37:28.677Z,75.42
2023-01-13T02:42:51.502Z,75.18
2023-01-13T02:47:58.493Z,77.52
2023-01-13T02:53:05.939Z,76.94
2023-01-13T02:58:11.983Z,76.20
2023-01-13T03:03:15.640Z,75.93
2023-01-13T03:08:30.208Z,76.44
2023-01-13T03:13:51.245Z,74.79
2023-01-13T03:19:04.946Z,74.86
2023-01-13T03:24:12.333Z,75.35
2023-01-13T03:29:20.797Z,74.67
2023-01-13T03:34:30.266Z,75.37
2023-01-13T03:39:37.677Z,75.27
2023-01-13T03:44:46.013Z,75.83
2023-01-13T03:49:56.111Z,76.51
2023-01-13T03:55:02.472Z,74.77
2023-01-13T04:00:09.487Z,75.27
2023-01-13T04:05:14.129Z,73.77
2023-01-13T04:10:20.028Z,73.58
2023-01-13T04:15:24.106Z,74.36
2023-01-13T04:20:27.601Z,74.69
2023-01-13T04:25:29.422Z,73.39
2023-01-13T04:30:31.579Z,72.16
2023-01-13T04:35:35.666Z,72.80
2023-01-13T04:40:38.030Z,73.60
2023-01-13T04:45:39.981Z,72.84
2023-01-13T04:50:43.526Z,73.23
2023-01-13T04:55:47.776Z,72.05
2023-01-13T05:00:50.451Z,71.50
2023-01-13T05:05:53.771Z,72.19
2023-01-13T05:10:55.714Z,71.77
2023-01-13T05:16:23.209Z,72.63
2023-01-13T05:21:45.258Z,72.57
2023-01-13T05:26:47.220Z,71.95
2023-01-13T05:31:49.302Z,72.33
2023-01-13T05:36:52.583Z,72.18
2023-01-13T05:42:13.072Z,71.84
2023-01-13T05:47:15.066Z,72.63
2023-01-13T05:52:18.372Z,72.76
2023-01-13T05:57:20.295Z,73.36
2023-01-13T06:02:22.439Z,72.23
2023-01-13T06:07:25.759Z,72.12
2023-01-13T06:12:27.723Z,71.76
2023-01-13T06:17:29.694Z,71.38
2023-01-13T06:22:35.515Z,71.37
2023-01-13T06:27:38.065Z,71.59
2023-01-13T06:32:43.980Z,69.68
2023-01-13T06:37:50.485Z,69.87
2023-01-13T06:43:15.978Z,71.82
2023-01-13T06:48:20.251Z,69.99
2023-01-13T06:53:23.510Z,69.81
2023-01-13T06:58:25.507Z,69.86
2023-01-13T07:03:27.463Z,69.99
2023-01-13T07:08:31.263Z,69.92
2023-01-13T07:13:53.420Z,70.30
2023-01-13T07:18:55.410Z,69.35
2023-01-13T07:23:58.700Z,69.40
2023-01-13T07:29:00.994Z,69.10
2023-01-13T07:34:04.037Z,70.56
2023-01-13T07:39:07.375Z,69.10
2023-01-13T07:44:10.781Z,69.15
2023-01-13T07:49:13.183Z,68.79
2023-01-13T07:54:17.180Z,68.69
2023-01-13T07:59:20.108Z,69.11
2023-01-13T08:04:22.385Z,69.59
2023-01-13T08:09:25.953Z,68.23
2023-01-13T08:14:27.912Z,67.21
2023-01-13T08:19:29.851Z,66.71
2023-01-13T08:24:33.171Z,66.58
2023-01-13T08:29:34.983Z,65.13
2023-01-13T08:34:36.966Z,65.15
2023-01-13T08:39:40.356Z,65.10
2023-01-13T08:44:42.368Z,66.68
2023-01-13T08:49:44.320Z,66.06
2023-01-13T08:54:47.815Z,64.48
2023-01-13T08:59:49.785Z,63.67
2023-01-13T09:04:52.615Z,63.69
2023-01-13T09:09:56.948Z,62.81
2023-01-13T09:14:59.047Z,63.34
2023-01-13T09:20:01.040Z,63.27
2023-01-13T09:25:05.096Z,62.03
2023-01-13T09:30:08.462Z,61.60
2023-01-13T09:35:10.468Z,62.44
2023-01-13T09:40:19.087Z,63.67
2023-01-13T09:45:25.367Z,62.55
2023-01-13T09:50:45.877Z,62.95
2023-01-13T09:55:49.581Z,63.42
2023-01-13T10:01:04.713Z,65.88
2023-01-13T10:06:15.530Z,63.70
2023-01-13T10:11:39.316Z,62.53
2023-01-13T10:16:47.254Z,63.38
2023-01-13T10:22:17.435Z,60.91
2023-01-13T10:27:28.923Z,61.62
2023-01-13T10:32:30.906Z,61.06
2023-01-13T10:37:32.860Z,62.39
2023-01-13T10:42:36.176Z,61.29
2023-01-13T10:47:38.155Z,60.65
2023-01-13T10:52:43.384Z,61.92
2023-01-13T10:57:46.727Z,61.87
2023-01-13T11:03:15.298Z,60.63
2023-01-13T11:08:18.913Z,60.96
2023-01-13T11:13:32.060Z,60.53
2023-01-13T11:18:43.583Z,61.48
2023-01-13T11:23:52.295Z,61.35
2023-01-13T11:29:00.853Z,63.15
2023-01-13T11:34:07.885Z,63.02
2023-01-13T11:39:19.492Z,64.22
2023-01-13T11:44:34.421Z,64.45
2023-01-13T11:49:38.616Z,64.73
2023-01-13T11:55:01.696Z,65.38
2023-01-13T12:00:28.160Z,65.11
2023-01-13T12:05:36.779Z,64.47
2023-01-13T12:10:46.438Z,64.90
2023-01-13T12:16:21.303Z,64.83
2023-01-13T12:21:25.658Z,64.65
2023-01-13T12:26:32.632Z,64.76
2023-01-13T12:31:38.822Z,64.83
2023-01-13T12:36:51.549Z,66.48
2023-01-13T12:42:17.841Z,66.84
2023-01-13T12:47:34.959Z,66.91
2023-01-13T12:52:44.077Z,67.06
2023-01-13T12:58:12.828Z,67.38
2023-01-13T13:03:27.550Z,67.57
2023-01-13T13:09:01.087Z,66.21
2023-01-13T13:14:05.169Z,67.82
2023-01-13T13:19:43.588Z,67.94
2023-01-13T13:25:27.490Z,72.83
2023-01-13T13:30:31.038Z,69.98
2023-01-13T13:35:52.343Z,68.13
2023-01-13T13:41:12.944Z,65.05
2023-01-13T13:46:42.673Z,66.74
2023-01-13T13:51:54.680Z,64.72
2023-01-13T13:56:58.149Z,66.07
2023-01-13T14:02:03.517Z,66.27
2023-01-13T14:07:18.344Z,66.56
2023-01-13T14:12:22.640Z,66.39
2023-01-13T14:17:28.378Z,66.84
2023-01-13T14:22:32.438Z,65.37
2023-01-13T14:27:35.407Z,66.24
2023-01-13T14:32:37.918Z,66.53
2023-01-13T14:37:43.161Z,66.72
2023-01-13T14:42:45.134Z,66.64
2023-01-13T14:47:52.447Z,65.69
2023-01-13T14:52:57.188Z,67.17
2023-01-13T14:58:24.338Z,66.40
2023-01-13T15:03:26.321Z,67.02
2023-01-13T15:08:34.855Z,67.42
2023-01-13T15:13:42.280Z,67.61
2023-01-13T15:18:47.214Z,67.37
2023-01-13T15:23:51.846Z,67.33
2023-01-13T15:28:56.058Z,67.84
2023-01-13T15:34:00.108Z,67.73
2023-01-13T15:39:04.151Z,70.10
2023-01-13T15:44:24.730Z,70.95
2023-01-13T15:49:34.893Z,71.03
2023-01-13T15:54:38.238Z,71.45
2023-01-13T15:59:40.231Z,71.72
2023-01-13T16:04:42.378Z,71.42
2023-01-13T16:09:45.937Z,71.44
2023-01-13T16:14:47.965Z,71.72
2023-01-13T16:19:50.069Z,72.80
2023-01-13T16:24:53.451Z,73.15
2023-01-13T16:29:55.496Z,73.19
2023-01-13T16:34:59.198Z,73.00
2023-01-13T16:40:03.427Z,72.53
2023-01-13T16:45:09.520Z,72.70
2023-01-13T16:50:23.393Z,72.60
2023-01-13T16:55:27.712Z,73.21
2023-01-13T17:00:29.984Z,73.46
2023-01-13T17:05:32.022Z,73.18
2023-01-13T17:10:35.376Z,72.43
2023-01-13T17:15:37.377Z,72.60
2023-01-13T17:20:40.254Z,73.15
2023-01-13T17:25:43.618Z,72.30
2023-01-13T17:30:46.937Z,72.25
2023-01-13T17:35:49.018Z,73.07
2023-01-13T17:40:52.374Z,72.05
2023-01-13T17:45:54.434Z,72.62
2023-01-13T17:50:56.447Z,71.08
2023-01-13T17:55:59.793Z,71.46
2023-01-13T18:01:06.459Z,72.07
2023-01-13T18:06:14.338Z,71.94
2023-01-13T18:11:19.314Z,71.34
2023-01-13T18:16:21.457Z,72.07
2023-01-13T18:21:44.961Z,72.32
2023-01-13T18:27:07.174Z,72.08
2023-01-13T18:32:09.430Z,74.02
2023-01-13T18:37:13.045Z,76.44
2023-01-13T18:42:34.864Z,76.84
2023-01-13T18:47:39.106Z,79.32
2023-01-13T18:52:41.395Z,79.69
2023-01-13T18:57:45.041Z,79.63
2023-01-13T19:02:47.691Z,78.54
2023-01-13T19:07:51.679Z,78.75
2023-01-13T19:12:55.001Z,80.43
2023-01-13T19:17:56.994Z,80.27
2023-01-13T19:22:59.113Z,81.04
2023-01-13T19:28:02.508Z,80.09
2023-01-13T19:33:04.507Z,80.55
2023-01-13T19:38:06.574Z,79.31
2023-01-13T19:43:28.821Z,80.82
2023-01-13T19:48:32.656Z,79.56
2023-01-13T19:53:34.846Z,80.92
2023-01-13T19:58:38.485Z,81.13
2023-01-13T20:03:40.951Z,80.61
2023-01-13T20:08:45.998Z,80.32
2023-01-13T20:13:49.503Z,82.04
2023-01-13T20:18:51.739Z,82.46
2023-01-13T20:23:53.914Z,82.76
2023-01-13T20:28:57.449Z,82.25
2023-01-13T20:33:59.439Z,84.44
2023-01-13T20:39:05.517Z,81.04
2023-01-13T20:44:12.283Z,83.38
2023-01-13T20:49:15.846Z,81.57
2023-01-13T20:54:18.494Z,82.19
2023-01-13T20:59:22.885Z,84.05
2023-01-13T21:04:25.532Z,82.94
2023-01-13T21:09:27.649Z,83.68
2023-01-13T21:14:49.942Z,83.05
2023-01-13T21:19:51.911Z,80.86
2023-01-13T21:24:53.965Z,82.61
2023-01-13T21:29:57.372Z,83.22
2023-01-13T21:34:59.430Z,82.15
2023-01-13T21:40:01.508Z,82.23
2023-01-13T21:45:24.038Z,81.02
2023-01-13T21:50:26.980Z,81.46
2023-01-13T21:55:29.394Z,80.93
2023-01-13T22:00:34.254Z,78.70
2023-01-13T22:05:36.612Z,77.57
2023-01-13T22:10:57.016Z,78.88
2023-01-13T22:16:04.605Z,76.01
2023-01-13T22:21:06.756Z,76.92
2023-01-13T22:26:08.905Z,77.66
2023-01-13T22:31:14.413Z,76.38
2023-01-13T22:36:16.413Z,77.51
2023-01-13T22:41:18.514Z,76.75
2023-01-13T22:46:22.935Z,76.63
2023-01-13T22:51:26.501Z,75.76
2023-01-13T22:56:28.453Z,77.16
2023-01-13T23:01:33.231Z,75.58
2023-01-13T23:06:35.504Z,76.56
2023-01-13T23:11:37.580Z,79.45
2023-01-13T23:16:41.381Z,81.08
2023-01-13T23:21:43.472Z,81.56
2023-01-13T23:26:45.481Z,82.04
2023-01-13T23:31:48.851Z,83.30
2023-01-13T23:36:50.840Z,82.77
2023-01-13T23:41:52.867Z,83.53
2023-01-13T23:46:56.238Z,83.43
2023-01-13T23:51:58.331Z,82.50
2023-01-13T23:57:00.590Z,83.23
